EGCCLIMP

Guest
Details From EGCC - Manchester
To LIMP - Parma
Flight Number -
Tags Generated
Created
Modified
Stats Distance 710 nm / 1,316 km
Max Altitude 0 ft / 0 m
Waypoints 5
Social Downloads 0
Likes 0
Share VATSIM

Download

Looking for another format? Having issues loading an existing format? Contact us
Advertisement - Login to hide

Notes

Generated

Route

EGCC QT408 HR012 MAXIM LIMP

ID Type Via Altitude Latitude Longitude Leg Dist Tot Dist Heading (true) Name
O EGCC APT - 0 ft / 0 m 53.33197˚ -2.31066˚ - 0 nm - -
QT408 FIX - 0 ft / 0 m 50.54483˚ 2.55378˚ 245 nm 245 nm 131° / 135° -
HR012 FIX - 0 ft / 0 m 47.46972˚ 6.99444˚ 254 nm 500 nm 135° / 138° -
MAXIM FIX - 0 ft / 0 m 45.02389˚ 10.08056˚ 194 nm 694 nm 138° / 140° -
O LIMP APT - 0 ft / 0 m 44.81766˚ 10.29313˚ 15 nm 710 nm 144° / 144° -

Altitude Profile

Advertisement - Login to hide

Weather


0- 5 10 15 20 25 30 35+ Temperature / ° C

Clouds and Precipitation
Forecast for 2017-12-14 12:00 UTC. Updated an hour ago

Ground ~20,000 ft ~40,000 ft Winds

EGCC

Details ICAO EGCC (MAN)
Name Manchester Intl
Region United Kingdom
Timezone Europe/London (UTC+0.0)
Stats Elevation 257 ft / 78 m (AMSL)
Location 53.347141° -2.283954°
Runways 2
Magnetic Variation 1.461° W

METAR

EGCC 140750Z AUTO 20007KT 170V230 9999 BKN022/// //////TCU 03/01 Q0987

Decode

TAF

TAF EGCC 140502Z 1406/1512 23012KT 9999 SCT025 TEMPO 1406/1504 6000 SHRA BKN008 PROB30 TEMPO 1406/1504 2000 SHRASN BKN004 BKN010CB BECMG 1500/1503 34010KT

Decode

Departure Runways

ID Width Length Bearing (true) Bearing (mag) Surface Threshold Offset Overrun Length
05L 151 ft / 46 m 9,981 ft / 3,042 m 50.99° 52.45° Asphalt 1,401 ft / 427 m 0 ft / 0 m
05R 151 ft / 46 m 9,952 ft / 3,033 m 50.97° 52.43° Asphalt 0 ft / 0 m 26 ft / 8 m
23L 151 ft / 46 m 9,952 ft / 3,033 m 231.00° 232.46° Asphalt 561 ft / 171 m 0 ft / 0 m
23R 151 ft / 46 m 9,981 ft / 3,042 m 231.02° 232.48° Asphalt 597 ft / 182 m 0 ft / 0 m

LIMP

Details ICAO LIMP (PMF)
Name PARMA
Region Italy
Timezone Europe/Rome (UTC+1.0)
Stats Elevation 161 ft / 49 m (AMSL)
Location 44.826774° 10.297108°
Runways 1
Magnetic Variation 2.715° E

METAR

LIMP 140750Z 28003KT 7000 SCT040 03/02 Q1010

Decode

TAF

TAF LIMP 140500Z 1406/1506 28006KT 3500 BR SCT020 BKN050 TEMPO 1406/1408 0700 BCFG BKN010

Decode

Destination Runways

ID Width Length Bearing (true) Bearing (mag) Surface Threshold Offset Overrun Length
02 148 ft / 45 m 6,966 ft / 2,123 m 17.20° 14.48° Asphalt 702 ft / 214 m 0 ft / 0 m
20 148 ft / 45 m 6,966 ft / 2,123 m 197.20° 194.48° Asphalt 597 ft / 182 m 0 ft / 0 m

Approach Navaids

Runway Type Ident Frequency Range Bearing (true) Bearing (mag) Slope Elevation
20 Localiser IPR 110.50 MHz 18 nm / 33 km 197.37° 194.66° - 163 ft / 50 m (AMSL)
20 Glidescope IPR 110.50 MHz 10 nm / 19 km 197.20° 194.48° 3.00° 145 ft / 44 m (AMSL)
20 DME IPR 110.50 MHz 18 nm / 33 km - - - 163 ft / 50 m (AMSL)